ZS1BBT Weather Reports


Display with metric or nautical units.
time (UTC)temp
F
wind
direction
speed
MPH
gust
MPH
rain 1hr
in
rain 24hr
in
rain mn
in
humidity
%
barometer
mb
20190522231644 50 109 0.0 3.0 0.00 0.00 0.00 96 1018.4
20190522230128 51 134 2.0 3.0 0.00 0.00 0.00 97 1018.3
20190522224725 51 104 2.0 4.0 0.00 0.00 0.00 97 1018.4
20190522223156 51 129 0.0 2.0 0.00 0.00 0.00 97 1018.4
20190522221551 51 109 1.0 3.0 0.00 0.00 0.00 96 1018.5
20190522220104 51 96 0.0 2.0 0.00 0.00 0.00 97 1018.6
20190522214648 51 109 1.0 2.0 0.00 0.00 0.00 96 1018.7
20190522213106 50 138 1.0 3.0 0.00 0.00 0.00 96 1018.5
20190522211628 50 157 0.0 0.0 0.00 0.00 0.00 95 1018.5
20190522210116 51 157 0.0 1.0 0.00 0.00 0.00 95 1018.6
20190522204648 51 158 1.0 2.0 0.00 0.00 0.00 95 1018.4
20190522203107 52 110 0.0 2.0 0.00 0.00 0.00 94 1018.3
20190522201552 53 107 0.0 1.0 0.00 0.00 0.00 95 1018.3
20190522200119 53 107 0.0 1.0 0.00 0.00 0.00 94 1018.0
20190522194648 53 107 0.0 2.0 0.00 0.00 0.00 93 1017.9
20190522193133 55 210 0.0 1.0 0.00 0.00 0.00 93 1018.0
20190522191548 55 298 0.0 0.0 0.00 0.00 0.00 93 1017.9
20190522190059 55 299 0.0 0.0 0.00 0.00 0.00 93 1017.8
20190522184539 54 299 0.0 0.0 0.00 0.00 0.00 94 1017.7
20190522183042 54 298 0.0 1.0 0.00 0.00 0.00 94 1017.7
20190522181554 53 299 0.0 1.0 0.00 0.00 0.00 93 1017.6
20190522180042 53 299 0.0 1.0 0.00 0.00 0.00 93 1017.7
20190522174524 53 299 0.0 0.0 0.00 0.00 0.00 93 1017.6
20190522173106 54 297 0.0 0.0 0.00 0.00 0.00 93 1017.3
20190522171528 53 298 0.0 0.0 0.00 0.00 0.00 92 1017.2
20190522170041 54 298 0.0 1.0 0.00 0.00 0.00 92 1017.2
20190522164523 54 297 0.0 0.0 0.00 0.00 0.00 91 1017.1
20190522163049 56 297 0.0 0.0 0.00 0.00 0.00 89 1016.7
20190522161557 57 297 0.0 0.0 0.00 0.00 0.00 87 1016.5
20190522160041 58 297 0.0 0.0 0.00 0.00 0.00 85 1016.4
20190522154540 59 297 0.0 1.0 0.00 0.00 0.00 84 1016.2
20190522153115 60 300 0.0 3.0 0.00 0.00 0.00 84 1016.2
20190522151551 61 290 3.0 6.0 0.00 0.00 0.00 83 1016.0
20190522150117 61 310 2.0 6.0 0.00 0.00 0.00 84 1016.1
20190522144529 62 295 6.0 11.0 0.00 0.00 0.00 81 1016.1
20190522143017 63 296 5.0 11.0 0.00 0.00 0.00 79 1016.1
20190522141530 64 296 5.0 14.0 0.00 0.00 0.00 79 1016.0
20190522140023 65 276 5.0 14.0 0.00 0.00 0.00 77 1015.8
20190522134517 65 253 5.0 13.0 0.00 0.00 0.00 74 1015.6
20190522133036 66 272 7.0 13.0 0.00 0.00 0.00 72 1015.5
20190522131527 66 255 8.0 12.0 0.00 0.00 0.00 70 1015.5
20190522130023 67 220 7.0 13.0 0.00 0.00 0.00 64 1015.4
20190522124510 67 296 4.0 11.0 0.00 0.00 0.00 68 1015.4
20190522123007 67 286 6.0 13.0 0.00 0.00 0.00 67 1015.6
20190522121508 66 298 4.0 12.0 0.00 0.00 0.00 72 1015.7
20190522120010 66 297 8.0 13.0 0.00 0.00 0.00 70 1015.9
20190522113155 67 258 4.0 10.0 0.00 0.00 0.00 69 1015.8
20190522111711 66 311 5.0 8.0 0.00 0.00 0.00 65 1016.0
20190522110150 67 297 3.0 8.0 0.00 0.00 0.00 65 1016.2
20190522104640 67 293 2.0 8.0 0.00 0.00 0.00 64 1016.4
20190522103123 66 325 3.0 9.0 0.00 0.00 0.00 67 1016.7
20190522101648 66 303 4.0 10.0 0.00 0.00 0.00 68 1016.9
20190522100103 67 259 5.0 9.0 0.00 0.00 0.00 68 1017.1
20190522094721 66 281 4.0 9.0 0.00 0.00 0.00 69 1017.2
20190522093143 65 281 2.0 4.0 0.00 0.00 0.00 69 1017.3
20190522091642 65 253 0.0 1.0 0.00 0.00 0.00 70 1017.4
20190522090130 64 303 0.0 2.0 0.00 0.00 0.00 71 1017.5
20190522084640 63 303 0.0 2.0 0.00 0.00 0.00 73 1017.6
20190522083112 61 138 0.0 1.0 0.00 0.00 0.00 77 1017.6
20190522081633 60 137 0.0 3.0 0.00 0.00 0.00 82 1017.5
20190522080050 57 109 0.0 4.0 0.00 0.00 0.00 85 1017.5
20190522074528 56 104 1.0 4.0 0.00 0.00 0.00 86 1017.3
20190522073020 54 78 2.0 6.0 0.00 0.00 0.00 88 1017.3
20190522071546 53 123 1.0 4.0 0.00 0.00 0.00 90 1017.3
20190522070017 52 91 2.0 4.0 0.00 0.00 0.00 90 1017.2
20190522064509 50 92 0.0 2.0 0.00 0.00 0.00 91 1017.1
20190522063134 49 87 0.0 1.0 0.00 0.00 0.00 94 1017.1
20190522061723 47 149 0.0 3.0 0.00 0.00 0.00 95 1017.0
20190522060228 46 80 0.0 2.0 0.00 0.00 0.00 95 1016.9
20190522054657 45 103 0.0 1.0 0.00 0.00 0.00 95 1016.8
20190522053204 46 101 0.0 2.0 0.00 0.00 0.00 96 1016.8
20190522051634 45 104 0.0 2.0 0.00 0.00 0.00 96 1016.6
20190522050119 45 102 1.0 3.0 0.00 0.00 0.00 96 1016.6
20190522044646 45 121 0.0 3.0 0.00 0.00 0.00 97 1016.6
20190522043143 45 132 0.0 2.0 0.00 0.00 0.00 97 1016.6
20190522041707 44 93 0.0 1.0 0.00 0.00 0.00 97 1016.7
20190522040140 43 154 0.0 0.0 0.00 0.00 0.00 96 1016.7
20190522034645 43 154 0.0 0.0 0.00 0.00 0.00 96 1016.8
20190522033141 44 154 0.0 1.0 0.00 0.00 0.00 96 1016.8
20190522031704 44 123 0.0 1.0 0.00 0.00 0.00 96 1016.8
20190522030203 43 331 0.0 1.0 0.00 0.00 0.00 95 1016.7
20190522024700 45 132 0.0 2.0 0.00 0.00 0.00 96 1016.7
20190522023134 45 118 0.0 2.0 0.00 0.00 0.00 96 1016.7
20190522021618 44 66 0.0 1.0 0.00 0.00 0.00 96 1016.8
20190522020059 45 131 0.0 2.0 0.00 0.00 0.00 96 1016.8
20190522014607 44 51 0.0 0.0 0.00 0.00 0.00 96 1016.8
20190522013103 45 73 0.0 1.0 0.00 0.00 0.00 96 1016.8
20190522011551 45 142 0.0 1.0 0.00 0.00 0.00 96 1016.9
20190522010114 45 107 0.0 2.0 0.00 0.00 0.00 96 1017.0
20190522004643 45 126 0.0 1.0 0.00 0.00 0.00 96 1017.1
20190522003123 44 137 0.0 0.0 0.00 0.00 0.00 95 1017.2
20190522001623 45 142 0.0 1.0 0.00 0.00 0.00 95 1017.5
20190522000049 45 99 0.0 0.0 0.00 0.00 0.00 94 1017.6
20190521234652 46 99 0.0 0.0 0.00 0.00 0.00 94 1017.7
20190521233052 46 98 0.0 0.0 0.00 0.00 0.00 93 1017.7